Portada
METAR-TAF:

METAR-TAF

Aeroports :

Termez, Uzbekistan

latitud: 37-14N, longitud: 067-16E, altitud: 302 m

Observació

L'informe es va fer fa 38 minuts, a les 00:30 UTC
Vent 2 kt del Est
Temperatura 1°C
Humitat 86%
Pressió 1016 hPa
Visibilitat: 4000 m
boirina

METAR: UTST 170030Z 10002KT 4000 BR NSC 01/M01 Q1016 R88/CLRD70 NOSIG

Hora: 06:08 (01:08 UTC)

Pronòstic

L'informe es va fer fa 2 hores i 8 minuts, a les 23:00 UTC
Pronòstic vàlid del 17 a les 00 UTC al 17 a les 24 UTC
Vent 6 kt amb direcció variable
Visibilitat: 5000 m
boirina
Temporalment
l' 17 a les 00 UTC al 17 a les 04 UTC
Visibilitat: 0500 m
a una alçada de 200 ft
boira
Temporalment
l' 17 a les 04 UTC al 17 a les 12 UTC
Vent 10 kt del Est amb ràfegues de 20 kt

TAF: UTST 162300Z 1700/1724 VRB06KT 5000 BR NSC TEMPO 1700/1704 0500 FG VV002 TEMPO 1704/1712 09010G20KT

Observacions i pronòstics meteorològics de més de 4000 aeroports (METAR i TAF).

Les estacions disponibles són els punts grocs i vermells al mapa.

Posi el ratolí al punt desitjat per veure el nom de l'estació.

Feu clic per veure les observacions i els pronòstics meteorològics.

Per canviar el mapa: feu clic els botons verds amb una creu de color negre per apropar; al botó verd amb un guió per allunyar la imatge; o en les fletxes verdes per a mapes adjacents.


METAR-TAF: